Time;durP1;ratioP1;P1;durP2;ratioP2;P2;SDS_P1;SDS_P2;PMS_P1;PMS_P2;Temp;Humidity;BMP_temperature;BMP_pressure;BME280_temperature;BME280_humidity;BME280_pressure;Samples;Min_cycle;Max_cycle;Signal;HPM_P1;HPM_P2
2021/11/11 00:01:34;;;;;;;;;;;25.50;43.30;;;;;;5002451;28;19915;-79
2021/11/11 00:04:02;;;;;;;;;;;25.50;43.30;;;;;;5002105;28;19921;-80
2021/11/11 00:06:30;;;;;;;;;;;25.50;43.40;;;;;;5019228;28;19952;-80
2021/11/11 00:08:56;;;;;;;;;;;25.60;43.40;;;;;;5022897;28;20354;-82
2021/11/11 00:11:24;;;;;;;;;;;25.50;43.30;;;;;;5006393;28;19910;-84
2021/11/11 00:13:52;;;;;;;;;;;25.50;43.40;;;;;;5010142;28;20330;-81
2021/11/11 00:16:20;;;;;;;;;;;25.50;43.30;;;;;;5033595;28;20273;-81
2021/11/11 00:18:46;;;;;;;;;;;25.50;43.30;;;;;;5011726;28;19916;-81
2021/11/11 00:21:14;;;;;;;;;;;25.50;43.30;;;;;;5006227;28;19909;-82
2021/11/11 00:23:42;;;;;;;;;;;25.50;43.30;;;;;;5022496;28;20351;-81
2021/11/11 00:26:08;;;;;;;;;;;25.50;43.30;;;;;;5022455;28;20396;-79
2021/11/11 00:28:33;;;;;;;;;;;25.60;43.40;;;;;;5005878;28;19909;-80
2021/11/11 00:30:59;;;;;;;;;;;25.50;43.30;;;;;;5005893;28;19913;-80
2021/11/11 00:33:24;;;;;;;;;;;25.60;43.50;;;;;;5006088;28;19941;-83
2021/11/11 00:35:50;;;;;;;;;;;25.60;43.30;;;;;;5005895;28;19920;-81
2021/11/11 00:38:21;;;;;;;;;;;25.60;43.40;;;;;;5022414;28;19917;-78
2021/11/11 00:40:46;;;;;;;;;;;25.50;43.30;;;;;;5022884;28;19920;-80
2021/11/11 00:43:12;;;;;;;;;;;25.60;43.40;;;;;;5006928;28;19909;-82
2021/11/11 00:45:38;;;;;;;;;;;25.50;43.40;;;;;;5006516;28;20301;-80
2021/11/11 00:48:04;;;;;;;;;;;25.50;43.30;;;;;;5025772;28;19920;-80
2021/11/11 00:50:34;;;;;;;;;;;25.50;43.30;;;;;;5013203;28;19909;-80
2021/11/11 00:53:00;;;;;;;;;;;25.50;43.30;;;;;;5029726;28;19967;-80
2021/11/11 00:55:26;;;;;;;;;;;25.50;43.30;;;;;;5010422;28;19913;-81
2021/11/11 00:57:51;;;;;;;;;;;25.50;43.40;;;;;;5010956;28;19910;-81
2021/11/11 01:00:20;;;;;;;;;;;25.50;44.00;;;;;;5011627;28;19914;-82
2021/11/11 01:02:47;;;;;;;;;;;25.50;43.40;;;;;;5027505;28;19913;-80
2021/11/11 01:05:12;;;;;;;;;;;25.50;43.40;;;;;;5011573;28;19940;-80
2021/11/11 01:07:38;;;;;;;;;;;25.50;43.40;;;;;;5009612;28;19909;-81
2021/11/11 01:10:07;;;;;;;;;;;25.50;43.40;;;;;;5007775;28;19963;-81
2021/11/11 01:12:35;;;;;;;;;;;25.50;43.30;;;;;;5005321;28;19916;-82
2021/11/11 01:15:03;;;;;;;;;;;25.50;43.40;;;;;;5005683;28;20307;-82
2021/11/11 01:17:29;;;;;;;;;;;25.50;43.40;;;;;;5021422;28;19920;-80
2021/11/11 01:19:57;;;;;;;;;;;25.50;43.30;;;;;;5026152;28;19912;-81
2021/11/11 01:22:22;;;;;;;;;;;25.50;43.30;;;;;;5026098;28;19921;-79
2021/11/11 01:24:48;;;;;;;;;;;25.50;43.90;;;;;;5010968;28;19909;-82
2021/11/11 01:27:14;;;;;;;;;;;25.50;43.40;;;;;;5025382;28;19935;-83
2021/11/11 01:29:42;;;;;;;;;;;25.50;43.40;;;;;;5005363;28;20283;-83
2021/11/11 01:32:10;;;;;;;;;;;25.50;43.40;;;;;;5004892;28;20246;-84
2021/11/11 01:34:38;;;;;;;;;;;25.50;43.40;;;;;;5004223;28;19955;-81
2021/11/11 01:37:03;;;;;;;;;;;25.50;44.00;;;;;;5004262;28;19916;-83
2021/11/11 01:39:31;;;;;;;;;;;25.50;43.40;;;;;;5004620;28;19924;-84
2021/11/11 01:41:57;;;;;;;;;;;25.50;42.90;;;;;;5005340;28;19909;-80
2021/11/11 01:44:23;;;;;;;;;;;25.40;43.20;;;;;;5004545;28;20396;-83
2021/11/11 01:46:51;;;;;;;;;;;25.40;43.20;;;;;;5004195;28;19921;-83
2021/11/11 01:49:16;;;;;;;;;;;25.40;43.80;;;;;;5020408;28;19909;-83
2021/11/11 01:51:42;;;;;;;;;;;25.40;43.20;;;;;;5004437;28;19916;-82
2021/11/11 01:54:08;;;;;;;;;;;25.40;43.20;;;;;;5003875;28;19910;-82
2021/11/11 01:56:34;;;;;;;;;;;25.50;43.30;;;;;;5020366;28;19920;-80
2021/11/11 01:59:01;;;;;;;;;;;25.50;43.20;;;;;;5004377;28;19974;-84
2021/11/11 02:01:29;;;;;;;;;;;25.50;43.30;;;;;;5004980;28;19909;-83
2021/11/11 02:03:55;;;;;;;;;;;25.50;43.20;;;;;;5004330;28;19909;-82
2021/11/11 02:06:23;;;;;;;;;;;25.50;43.20;;;;;;5004083;28;19909;-81
2021/11/11 02:08:49;;;;;;;;;;;25.50;43.20;;;;;;5004107;28;19913;-81
2021/11/11 02:11:19;;;;;;;;;;;25.50;43.20;;;;;;5003661;28;19909;-81
2021/11/11 02:13:45;;;;;;;;;;;25.50;43.20;;;;;;5020312;28;20262;-84
2021/11/11 02:16:13;;;;;;;;;;;25.50;43.20;;;;;;5019923;28;19920;-84
2021/11/11 02:18:38;;;;;;;;;;;25.40;43.80;;;;;;5004584;28;20230;-83
2021/11/11 02:21:04;;;;;;;;;;;25.50;43.30;;;;;;5020223;28;19909;-82
2021/11/11 02:23:32;;;;;;;;;;;25.50;43.30;;;;;;5003712;28;19909;-81
2021/11/11 02:25:58;;;;;;;;;;;25.50;43.30;;;;;;5003523;28;19917;-83
2021/11/11 02:28:29;;;;;;;;;;;25.50;43.30;;;;;;5019851;28;20357;-82
2021/11/11 02:30:54;;;;;;;;;;;25.40;43.30;;;;;;5003614;28;20331;-80
2021/11/11 02:33:23;;;;;;;;;;;25.40;43.30;;;;;;5003181;28;19914;-81
2021/11/11 02:35:49;;;;;;;;;;;25.40;43.30;;;;;;5003212;28;19916;-82
2021/11/11 02:38:17;;;;;;;;;;;25.40;43.30;;;;;;5002869;28;19924;-83
2021/11/11 02:40:43;;;;;;;;;;;25.40;43.30;;;;;;5019939;28;20402;-84
2021/11/11 02:43:11;;;;;;;;;;;25.40;43.40;;;;;;5003370;28;19988;-84
2021/11/11 02:45:40;;;;;;;;;;;25.50;43.40;;;;;;5003143;28;19917;-84
2021/11/11 02:48:09;;;;;;;;;;;25.50;43.40;;;;;;5019536;28;19917;-83
2021/11/11 02:50:35;;;;;;;;;;;25.50;43.40;;;;;;5019887;28;20250;-82
2021/11/11 02:53:01;;;;;;;;;;;25.40;43.30;;;;;;5003359;28;19909;-83
2021/11/11 02:55:27;;;;;;;;;;;25.50;43.40;;;;;;5002772;28;19948;-81
2021/11/11 02:57:56;;;;;;;;;;;25.50;43.50;;;;;;5019601;28;19913;-85
2021/11/11 03:00:26;;;;;;;;;;;25.50;43.40;;;;;;5002992;28;19921;-86
2021/11/11 03:02:52;;;;;;;;;;;25.50;43.40;;;;;;5002935;28;19916;-84
2021/11/11 03:05:21;;;;;;;;;;;25.50;43.40;;;;;;5002868;28;20004;-86
2021/11/11 03:07:46;;;;;;;;;;;25.40;43.40;;;;;;5003194;28;19916;-85
2021/11/11 03:10:13;;;;;;;;;;;25.40;43.40;;;;;;5002877;28;19909;-83
2021/11/11 03:12:38;;;;;;;;;;;25.40;43.40;;;;;;5002720;28;19940;-81
2021/11/11 03:15:06;;;;;;;;;;;25.50;43.40;;;;;;5002317;28;20007;-83
2021/11/11 03:17:31;;;;;;;;;;;25.50;43.40;;;;;;5019447;28;19910;-83
2021/11/11 03:19:57;;;;;;;;;;;25.40;43.40;;;;;;5002228;28;19919;-82
2021/11/11 03:22:22;;;;;;;;;;;25.40;43.40;;;;;;5002955;28;19909;-83
2021/11/11 03:24:51;;;;;;;;;;;25.40;43.40;;;;;;5003101;28;19909;-83
2021/11/11 03:27:18;;;;;;;;;;;25.40;43.40;;;;;;5038839;28;19913;-80
2021/11/11 03:29:44;;;;;;;;;;;25.50;43.50;;;;;;5023768;28;19909;-79
2021/11/11 03:32:10;;;;;;;;;;;25.40;43.40;;;;;;5006258;28;20316;-82
2021/11/11 03:34:35;;;;;;;;;;;25.40;43.30;;;;;;5005978;28;19913;-80
2021/11/11 03:37:03;;;;;;;;;;;25.50;43.40;;;;;;5007847;28;19964;-83
2021/11/11 03:39:29;;;;;;;;;;;25.50;43.40;;;;;;5019420;28;19971;-80
2021/11/11 03:41:54;;;;;;;;;;;25.40;43.40;;;;;;5001642;28;19917;-83
2021/11/11 03:44:23;;;;;;;;;;;25.50;43.40;;;;;;5018774;28;19921;-83
2021/11/11 03:46:49;;;;;;;;;;;25.40;43.30;;;;;;5001746;28;20333;-83
2021/11/11 03:49:17;;;;;;;;;;;25.40;43.30;;;;;;5001965;28;19982;-81
2021/11/11 03:51:43;;;;;;;;;;;25.40;43.30;;;;;;5002373;28;19914;-81
2021/11/11 03:54:11;;;;;;;;;;;25.40;43.30;;;;;;5018363;28;20326;-82
2021/11/11 03:56:36;;;;;;;;;;;25.40;43.30;;;;;;5002145;28;19936;-80
2021/11/11 03:59:02;;;;;;;;;;;25.40;43.30;;;;;;5002323;28;20239;-79
2021/11/11 04:01:28;;;;;;;;;;;25.40;43.30;;;;;;5001944;28;19909;-81
2021/11/11 04:03:54;;;;;;;;;;;25.40;43.90;;;;;;5001642;28;19979;-82
2021/11/11 04:06:19;;;;;;;;;;;25.40;43.30;;;;;;5001842;28;19924;-82
2021/11/11 04:08:45;;;;;;;;;;;25.40;43.30;;;;;;5001831;28;20346;-83
2021/11/11 04:11:10;;;;;;;;;;;25.40;43.30;;;;;;5001763;28;19909;-80
2021/11/11 04:13:36;;;;;;;;;;;25.40;43.30;;;;;;5001923;28;19913;-80
2021/11/11 04:16:02;;;;;;;;;;;25.40;43.20;;;;;;5018560;28;19933;-80
2021/11/11 04:18:28;;;;;;;;;;;25.40;43.20;;;;;;5002325;28;20349;-83
2021/11/11 04:20:53;;;;;;;;;;;25.40;43.20;;;;;;5002283;28;19909;-80
2021/11/11 04:23:21;;;;;;;;;;;25.40;43.20;;;;;;5022051;28;19996;-82
2021/11/11 04:28:33;;;;;;;;;;;25.40;43.30;;;;;;5024057;28;19963;-83
2021/11/11 04:31:02;;;;;;;;;;;25.40;43.20;;;;;;5001970;28;19935;-81
2021/11/11 04:33:28;;;;;;;;;;;25.40;43.20;;;;;;5002650;28;19913;-82
2021/11/11 04:35:59;;;;;;;;;;;25.40;43.20;;;;;;5035047;28;20259;-81
2021/11/11 04:38:51;;;;;;;;;;;25.40;43.20;;;;;;5018463;28;20350;-81
2021/11/11 05:05:19;;;;;;;;;;;25.40;43.30;;;;;;5021713;28;19971;-82
2021/11/11 05:07:45;;;;;;;;;;;25.40;43.20;;;;;;5004770;28;19964;-80
2021/11/11 05:10:10;;;;;;;;;;;25.40;43.20;;;;;;5038384;28;19959;-81
2021/11/11 05:12:36;;;;;;;;;;;25.40;43.20;;;;;;5004172;28;19928;-80
2021/11/11 05:15:02;;;;;;;;;;;25.40;43.20;;;;;;5004300;28;20246;-84
2021/11/11 05:17:31;;;;;;;;;;;25.40;43.20;;;;;;5004203;28;20308;-79
2021/11/11 05:19:56;;;;;;;;;;;25.40;43.20;;;;;;5020864;28;19975;-80
2021/11/11 05:22:24;;;;;;;;;;;25.40;43.20;;;;;;5004472;28;20019;-82
2021/11/11 05:24:52;;;;;;;;;;;25.40;43.20;;;;;;5020926;28;20365;-81
2021/11/11 05:27:22;;;;;;;;;;;25.40;43.20;;;;;;5004534;28;20306;-82
2021/11/11 05:29:48;;;;;;;;;;;25.40;43.20;;;;;;5037943;28;20245;-81
2021/11/11 05:32:16;;;;;;;;;;;25.40;43.20;;;;;;5020887;28;19967;-82
2021/11/11 05:34:44;;;;;;;;;;;25.40;43.20;;;;;;5004535;28;19963;-82
2021/11/11 05:37:12;;;;;;;;;;;25.40;43.10;;;;;;5022795;28;19917;-78
2021/11/11 05:39:37;;;;;;;;;;;25.50;43.20;;;;;;5004259;28;19960;-80
2021/11/11 05:42:05;;;;;;;;;;;25.40;43.20;;;;;;5003961;28;19909;-80
2021/11/11 05:44:31;;;;;;;;;;;25.40;43.20;;;;;;5005479;28;19910;-80
2021/11/11 05:46:57;;;;;;;;;;;25.40;43.10;;;;;;5018317;28;19916;-81
2021/11/11 05:49:23;;;;;;;;;;;25.40;43.70;;;;;;5000732;28;19913;-82
2021/11/11 05:51:51;;;;;;;;;;;25.40;43.10;;;;;;5017070;28;19937;-81
2021/11/11 05:54:16;;;;;;;;;;;25.40;43.10;;;;;;5017290;28;19914;-82
2021/11/11 05:56:44;;;;;;;;;;;25.40;43.10;;;;;;5001575;28;20446;-82
2021/11/11 05:59:15;;;;;;;;;;;25.40;43.10;;;;;;5017566;28;20389;-81
2021/11/11 06:01:40;;;;;;;;;;;25.40;43.10;;;;;;5017218;28;20056;-80
2021/11/11 06:04:08;;;;;;;;;;;25.40;43.10;;;;;;5000463;28;19980;-80
2021/11/11 06:06:36;;;;;;;;;;;25.40;43.10;;;;;;5003936;28;20301;-80
2021/11/11 06:09:02;;;;;;;;;;;25.40;43.10;;;;;;5006677;28;19909;-82
2021/11/11 06:11:28;;;;;;;;;;;25.40;43.10;;;;;;5007879;28;19910;-79
2021/11/11 06:13:54;;;;;;;;;;;25.50;43.20;;;;;;5004901;28;19944;-80
2021/11/11 06:16:21;;;;;;;;;;;25.40;43.10;;;;;;5003817;28;19936;-81
2021/11/11 06:18:47;;;;;;;;;;;25.50;43.20;;;;;;5008293;28;19969;-81
2021/11/11 06:21:12;;;;;;;;;;;25.40;43.10;;;;;;5007247;28;19937;-79
2021/11/11 06:23:38;;;;;;;;;;;25.40;43.10;;;;;;5010348;28;19920;-79
2021/11/11 06:26:06;;;;;;;;;;;25.40;43.10;;;;;;5007060;28;20004;-81
2021/11/11 06:28:34;;;;;;;;;;;25.40;43.10;;;;;;5019937;28;20302;-83
2021/11/11 06:30:59;;;;;;;;;;;25.40;43.10;;;;;;5002661;28;20301;-82
2021/11/11 06:33:25;;;;;;;;;;;25.40;43.10;;;;;;5000176;28;19909;-83
2021/11/11 06:35:51;;;;;;;;;;;25.40;43.10;;;;;;4999839;28;19909;-82
2021/11/11 06:38:19;;;;;;;;;;;25.40;43.10;;;;;;5016179;28;20369;-83
2021/11/11 06:40:45;;;;;;;;;;;25.40;43.00;;;;;;4999650;28;19971;-81
2021/11/11 06:43:13;;;;;;;;;;;25.40;43.00;;;;;;4999955;28;19957;-80
2021/11/11 06:45:42;;;;;;;;;;;25.40;43.00;;;;;;5015902;28;20016;-81
2021/11/11 06:48:08;;;;;;;;;;;25.40;43.00;;;;;;4999977;28;19909;-76
2021/11/11 06:50:33;;;;;;;;;;;24.80;39.60;;;;;;5015562;28;20029;-79
2021/11/11 06:52:59;;;;;;;;;;;23.70;35.80;;;;;;5015242;28;19909;-77
2021/11/11 06:55:24;;;;;;;;;;;21.70;38.50;;;;;;5015449;28;19997;-79
2021/11/11 06:57:50;;;;;;;;;;;21.40;38.60;;;;;;5016157;28;19916;-78
2021/11/11 07:00:16;;;;;;;;;;;21.10;39.30;;;;;;5016395;28;20042;-77
2021/11/11 07:02:41;;;;;;;;;;;21.00;39.40;;;;;;4999137;28;19909;-78
2021/11/11 07:05:07;;;;;;;;;;;21.30;38.90;;;;;;4999009;28;19917;-80
2021/11/11 07:07:32;;;;;;;;;;;21.60;38.50;;;;;;5016299;28;19913;-77
2021/11/11 07:09:58;;;;;;;;;;;21.70;38.30;;;;;;5016415;28;19917;-83
2021/11/11 07:12:24;;;;;;;;;;;21.80;38.40;;;;;;5000640;28;19928;-84
2021/11/11 07:14:49;;;;;;;;;;;22.00;39.10;;;;;;4999687;28;20323;-83
2021/11/11 07:17:15;;;;;;;;;;;22.50;39.40;;;;;;5014781;28;20004;-82
2021/11/11 07:19:41;;;;;;;;;;;22.80;39.10;;;;;;5015985;28;19914;-86
2021/11/11 07:22:09;;;;;;;;;;;23.20;39.20;;;;;;5016326;28;20680;-85
2021/11/11 07:24:34;;;;;;;;;;;23.40;39.40;;;;;;5016187;28;20004;-84
2021/11/11 07:27:00;;;;;;;;;;;23.60;40.20;;;;;;4999387;28;19917;-87
2021/11/11 07:29:28;;;;;;;;;;;23.80;41.20;;;;;;5009360;28;19936;-80
2021/11/11 07:31:54;;;;;;;;;;;23.90;43.10;;;;;;5039583;28;19956;-84
2021/11/11 07:34:20;;;;;;;;;;;24.00;44.10;;;;;;5026514;28;19999;-83
2021/11/11 07:36:48;;;;;;;;;;;24.10;45.60;;;;;;5035421;28;19913;-82
2021/11/11 07:39:13;;;;;;;;;;;24.20;45.60;;;;;;5036560;28;19917;-82
2021/11/11 07:41:39;;;;;;;;;;;24.30;45.90;;;;;;5038918;28;19912;-83
2021/11/11 07:44:06;;;;;;;;;;;24.40;46.10;;;;;;5039657;28;19916;-86
2021/11/11 07:46:35;;;;;;;;;;;24.50;46.10;;;;;;5042739;28;19920;-81
2021/11/11 07:49:00;;;;;;;;;;;24.60;45.90;;;;;;5043295;28;20399;-82
2021/11/11 07:51:26;;;;;;;;;;;24.70;46.00;;;;;;5043307;28;19913;-82
2021/11/11 07:53:51;;;;;;;;;;;24.70;45.90;;;;;;5043950;28;20364;-82
2021/11/11 07:56:17;;;;;;;;;;;24.80;45.80;;;;;;5056074;28;19909;-80
2021/11/11 07:58:43;;;;;;;;;;;24.80;45.80;;;;;;5055730;28;19924;-82
2021/11/11 08:01:08;;;;;;;;;;;24.90;45.90;;;;;;5038349;28;20337;-82
2021/11/11 08:03:34;;;;;;;;;;;25.00;45.80;;;;;;5038125;28;19927;-84
2021/11/11 08:06:01;;;;;;;;;;;25.00;45.70;;;;;;5054924;28;20322;-85
2021/11/11 08:08:27;;;;;;;;;;;25.00;45.70;;;;;;5038247;28;20004;-82
2021/11/11 08:10:53;;;;;;;;;;;25.10;45.60;;;;;;5037887;28;19955;-79
2021/11/11 08:13:18;;;;;;;;;;;25.10;45.60;;;;;;5054714;28;19909;-82
2021/11/11 08:15:44;;;;;;;;;;;25.10;45.50;;;;;;5054316;28;19917;-80
2021/11/11 08:18:10;;;;;;;;;;;25.20;45.40;;;;;;5037546;28;19919;-81
2021/11/11 08:20:37;;;;;;;;;;;25.20;45.50;;;;;;5054291;28;19913;-84
2021/11/11 08:23:03;;;;;;;;;;;25.20;45.50;;;;;;5037887;28;19909;-79
2021/11/11 08:25:30;;;;;;;;;;;25.20;45.50;;;;;;5037665;28;19966;-81
2021/11/11 08:27:56;;;;;;;;;;;25.30;46.00;;;;;;5039639;28;19923;-78
2021/11/11 08:30:22;;;;;;;;;;;25.30;45.30;;;;;;5042361;28;20293;-81
2021/11/11 08:32:50;;;;;;;;;;;25.30;45.20;;;;;;5041610;28;20238;-83
2021/11/11 08:35:16;;;;;;;;;;;25.30;45.10;;;;;;5042230;28;20308;-82
2021/11/11 08:37:45;;;;;;;;;;;25.30;45.20;;;;;;5046828;28;19978;-80
2021/11/11 08:40:11;;;;;;;;;;;25.30;45.00;;;;;;5045435;28;20333;-82
2021/11/11 08:42:37;;;;;;;;;;;25.40;45.10;;;;;;5042716;28;19958;-81
2021/11/11 08:45:03;;;;;;;;;;;25.40;45.10;;;;;;5043133;28;19913;-84
2021/11/11 08:47:31;;;;;;;;;;;25.40;45.10;;;;;;5062404;28;19941;-80
2021/11/11 08:49:58;;;;;;;;;;;25.40;45.10;;;;;;5043236;28;19909;-80
2021/11/11 08:52:23;;;;;;;;;;;25.40;44.70;;;;;;5057921;28;19920;-80
2021/11/11 08:54:49;;;;;;;;;;;25.40;44.90;;;;;;5057786;28;19909;-82
2021/11/11 08:57:15;;;;;;;;;;;25.40;45.00;;;;;;5040838;28;19909;-82
2021/11/11 08:59:40;;;;;;;;;;;25.40;45.10;;;;;;5040932;28;19913;-83
2021/11/11 09:02:07;;;;;;;;;;;25.40;45.20;;;;;;5040725;28;19912;-83
2021/11/11 09:04:32;;;;;;;;;;;25.50;45.20;;;;;;5057412;28;19908;-80
2021/11/11 09:07:01;;;;;;;;;;;25.40;45.00;;;;;;5040752;28;19916;-80
2021/11/11 09:09:27;;;;;;;;;;;25.40;44.90;;;;;;5040563;28;19940;-83
2021/11/11 09:11:52;;;;;;;;;;;25.50;45.00;;;;;;5040504;28;20009;-80
2021/11/11 09:14:18;;;;;;;;;;;25.50;44.90;;;;;;5040719;28;19915;-81
2021/11/11 09:16:44;;;;;;;;;;;25.50;44.90;;;;;;5040590;28;19916;-79
2021/11/11 09:19:11;;;;;;;;;;;25.50;44.80;;;;;;5040684;28;19913;-82
2021/11/11 09:21:38;;;;;;;;;;;25.50;44.70;;;;;;5040966;28;19908;-83
2021/11/11 09:24:06;;;;;;;;;;;25.50;44.60;;;;;;5040334;28;19909;-83
2021/11/11 09:26:34;;;;;;;;;;;25.50;44.60;;;;;;5040911;28;19912;-82
2021/11/11 09:29:03;;;;;;;;;;;25.50;44.50;;;;;;5040643;28;19939;-81
2021/11/11 09:31:31;;;;;;;;;;;25.50;44.50;;;;;;5040971;28;19966;-82
2021/11/11 09:33:57;;;;;;;;;;;25.50;44.40;;;;;;5040652;28;19935;-81
2021/11/11 09:36:22;;;;;;;;;;;25.50;44.40;;;;;;5058984;28;19909;-80
2021/11/11 09:38:50;;;;;;;;;;;25.50;44.30;;;;;;5043136;28;19932;-84
2021/11/11 09:41:16;;;;;;;;;;;25.50;44.90;;;;;;5043888;28;19916;-84
2021/11/11 09:43:47;;;;;;;;;;;25.50;44.20;;;;;;5060606;28;19963;-81
2021/11/11 09:46:13;;;;;;;;;;;25.50;44.20;;;;;;5060380;28;19945;-79
2021/11/11 09:48:39;;;;;;;;;;;25.50;44.20;;;;;;5060003;28;19915;-80
2021/11/11 09:51:05;;;;;;;;;;;25.50;44.20;;;;;;5060120;28;19927;-83
2021/11/11 09:53:31;;;;;;;;;;;25.50;44.10;;;;;;5060345;28;19908;-82
2021/11/11 09:58:42;;;;;;;;;;;25.50;44.10;;;;;;5066257;28;19919;-79
2021/11/11 10:01:09;;;;;;;;;;;25.50;44.10;;;;;;5063748;28;19975;-79
2021/11/11 10:03:41;;;;;;;;;;;25.50;44.20;;;;;;5048043;28;19952;-81
2021/11/11 10:06:08;;;;;;;;;;;25.50;44.20;;;;;;5046232;28;19962;-78
2021/11/11 10:08:38;;;;;;;;;;;25.40;44.10;;;;;;5060209;28;20325;-81
2021/11/11 10:11:09;;;;;;;;;;;25.50;44.20;;;;;;5059871;28;19912;-79
2021/11/11 10:13:37;;;;;;;;;;;25.40;44.10;;;;;;5043407;28;19950;-79
2021/11/11 10:16:08;;;;;;;;;;;25.40;44.00;;;;;;5060106;28;19908;-82
2021/11/11 10:18:44;;;;;;;;;;;25.40;44.00;;;;;;5042994;28;19908;-80
2021/11/11 10:21:23;;;;;;;;;;;25.40;44.00;;;;;;5059470;28;19918;-79
2021/11/11 10:23:49;;;;;;;;;;;25.40;44.00;;;;;;5059484;28;19908;-80
2021/11/11 10:26:25;;;;;;;;;;;25.40;44.00;;;;;;5043317;28;19920;-81
2021/11/11 10:28:53;;;;;;;;;;;25.40;44.10;;;;;;5043555;28;19908;-81
2021/11/11 10:31:21;;;;;;;;;;;25.40;44.10;;;;;;5043261;28;19908;-81
2021/11/11 10:34:06;;;;;;;;;;;25.40;44.00;;;;;;5059709;28;19916;-79
2021/11/11 10:36:50;;;;;;;;;;;25.40;44.00;;;;;;5058854;28;19916;-82
2021/11/11 10:39:41;;;;;;;;;;;25.40;44.00;;;;;;5042646;28;19948;-81
2021/11/11 10:42:14;;;;;;;;;;;25.40;44.00;;;;;;5058929;28;19927;-80
2021/11/11 10:44:39;;;;;;;;;;;25.40;43.90;;;;;;5058984;28;20374;-84
2021/11/11 10:47:08;;;;;;;;;;;25.40;43.90;;;;;;5059235;28;19909;-80
2021/11/11 10:49:38;;;;;;;;;;;25.40;43.90;;;;;;5042859;28;20011;-79
2021/11/11 10:52:23;;;;;;;;;;;25.40;43.90;;;;;;5042618;28;19959;-80
2021/11/11 10:54:57;;;;;;;;;;;25.40;44.20;;;;;;5059541;28;19948;-82
2021/11/11 10:57:41;;;;;;;;;;;25.40;44.30;;;;;;5059619;28;20321;-81
2021/11/11 11:00:08;;;;;;;;;;;25.40;44.30;;;;;;5058825;28;20332;-83
2021/11/11 11:02:53;;;;;;;;;;;25.50;44.40;;;;;;5042519;28;19908;-82
2021/11/11 11:05:19;;;;;;;;;;;25.50;44.40;;;;;;5059422;28;19909;-82
2021/11/11 11:07:48;;;;;;;;;;;25.50;44.50;;;;;;5058915;28;19909;-80
2021/11/11 11:10:17;;;;;;;;;;;25.60;44.60;;;;;;5059506;28;20335;-81
2021/11/11 11:12:43;;;;;;;;;;;25.60;44.50;;;;;;5042506;28;19948;-81
2021/11/11 11:15:08;;;;;;;;;;;25.60;44.50;;;;;;5058298;28;20262;-79
2021/11/11 11:17:34;;;;;;;;;;;25.60;44.40;;;;;;5042195;28;19958;-82
2021/11/11 11:20:21;;;;;;;;;;;25.60;44.40;;;;;;5058933;28;19935;-83
2021/11/11 11:22:47;;;;;;;;;;;25.60;44.40;;;;;;5058335;28;19912;-82
2021/11/11 11:25:12;;;;;;;;;;;25.70;44.40;;;;;;5042518;28;19979;-82
2021/11/11 11:27:40;;;;;;;;;;;25.70;44.30;;;;;;5042710;28;19908;-81
2021/11/11 11:30:17;;;;;;;;;;;25.70;44.20;;;;;;5042535;28;19908;-81
2021/11/11 11:32:44;;;;;;;;;;;25.70;44.20;;;;;;5046385;28;19971;-83
2021/11/11 11:35:13;;;;;;;;;;;25.70;44.30;;;;;;5050068;28;19908;-83
2021/11/11 11:37:41;;;;;;;;;;;25.70;44.20;;;;;;5051506;28;20077;-81
2021/11/11 11:40:11;;;;;;;;;;;25.80;44.30;;;;;;5050071;28;19920;-80
2021/11/11 11:42:38;;;;;;;;;;;25.80;44.20;;;;;;5063835;28;20359;-80
2021/11/11 11:45:08;;;;;;;;;;;25.70;44.20;;;;;;5064862;28;19958;-81
2021/11/11 11:50:06;;;;;;;;;;;25.80;44.30;;;;;;5085667;28;19908;-78
2021/11/11 11:52:32;;;;;;;;;;;25.80;44.30;;;;;;5065599;28;19908;-79
2021/11/11 12:00:10;;;;;;;;;;;25.80;44.10;;;;;;5058871;28;19923;-79
2021/11/11 12:10:26;;;;;;;;;;;25.80;44.30;;;;;;5067991;28;20234;-82
2021/11/11 12:40:04;;;;;;;;;;;25.90;44.20;;;;;;5060202;28;19970;-85
2021/11/11 12:42:40;;;;;;;;;;;25.90;44.20;;;;;;5041376;28;20256;-81
2021/11/11 12:45:10;;;;;;;;;;;25.90;44.30;;;;;;5058038;28;20360;-81
2021/11/11 12:47:40;;;;;;;;;;;25.90;44.30;;;;;;5059709;28;19915;-82
2021/11/11 12:50:24;;;;;;;;;;;25.90;44.30;;;;;;5078276;28;19913;-80
2021/11/11 12:53:10;;;;;;;;;;;25.90;44.30;;;;;;5057416;28;19908;-82
2021/11/11 12:55:45;;;;;;;;;;;25.90;44.20;;;;;;5074812;28;19908;-79
2021/11/11 12:58:12;;;;;;;;;;;25.90;44.10;;;;;;5057606;28;19932;-81
2021/11/11 13:00:39;;;;;;;;;;;25.90;44.10;;;;;;5040659;28;19912;-76
2021/11/11 13:03:06;;;;;;;;;;;26.00;44.40;;;;;;5057216;28;19908;-79
2021/11/11 13:05:55;;;;;;;;;;;25.90;43.50;;;;;;5040949;28;19962;-82
2021/11/11 13:08:21;;;;;;;;;;;25.10;36.90;;;;;;5074991;28;20392;-83
2021/11/11 13:10:57;;;;;;;;;;;23.70;37.40;;;;;;5056931;28;19923;-80
2021/11/11 13:13:26;;;;;;;;;;;23.20;39.10;;;;;;5040441;28;19909;-80
2021/11/11 13:15:56;;;;;;;;;;;22.70;39.60;;;;;;5059685;28;19909;-80
2021/11/11 13:18:41;;;;;;;;;;;22.00;41.10;;;;;;5043881;28;19909;-81
2021/11/11 13:21:30;;;;;;;;;;;21.70;41.40;;;;;;5060369;28;20405;-83
2021/11/11 13:24:43;;;;;;;;;;;21.70;41.60;;;;;;5061384;28;19919;-80
2021/11/11 13:27:35;;;;;;;;;;;22.00;42.00;;;;;;5077069;28;19958;-80
2021/11/11 13:54:06;;;;;;;;;;;24.40;41.10;;;;;;5063450;28;19919;-82
2021/11/11 14:00:35;;;;;;;;;;;25.00;41.40;;;;;;5062461;28;20394;-81
2021/11/11 14:03:28;;;;;;;;;;;25.10;41.50;;;;;;5045660;28;19916;-80
2021/11/11 15:19:17;;;;;;;;;;;25.80;42.50;;;;;;5059577;28;19908;-80
2021/11/11 16:26:33;;;;;;;;;;;26.00;42.80;;;;;;5059444;28;19965;-80
2021/11/11 16:28:59;;;;;;;;;;;25.90;42.80;;;;;;5058381;28;19909;-81
2021/11/11 16:31:28;;;;;;;;;;;25.90;42.70;;;;;;5057737;28;20229;-81
2021/11/11 16:33:56;;;;;;;;;;;25.90;42.70;;;;;;5057567;28;19962;-80
2021/11/11 16:36:24;;;;;;;;;;;25.90;42.60;;;;;;5041333;28;19938;-79
2021/11/11 16:38:52;;;;;;;;;;;25.90;42.50;;;;;;5041360;28;19917;-80
2021/11/11 16:41:20;;;;;;;;;;;25.90;42.50;;;;;;5057910;28;20003;-78
2021/11/11 16:43:48;;;;;;;;;;;25.90;42.40;;;;;;5041504;28;19909;-80
2021/11/11 16:46:16;;;;;;;;;;;25.90;42.40;;;;;;5060175;28;19919;-78
2021/11/11 16:48:42;;;;;;;;;;;25.90;42.40;;;;;;5048208;28;19916;-79
2021/11/11 16:51:09;;;;;;;;;;;25.90;42.30;;;;;;5049722;28;19908;-80
2021/11/11 16:53:35;;;;;;;;;;;25.90;42.30;;;;;;5046907;28;19915;-78
2021/11/11 16:56:00;;;;;;;;;;;25.90;42.40;;;;;;5045620;28;19999;-79
2021/11/11 16:58:26;;;;;;;;;;;25.90;42.40;;;;;;5080463;28;19915;-80
2021/11/11 17:00:52;;;;;;;;;;;25.90;42.50;;;;;;5062874;28;19913;-78
2021/11/11 17:03:18;;;;;;;;;;;25.90;42.50;;;;;;5062415;28;20345;-78
2021/11/11 17:05:43;;;;;;;;;;;25.90;42.60;;;;;;5079193;28;19995;-78
2021/11/11 17:08:15;;;;;;;;;;;25.90;42.60;;;;;;5061199;28;19909;-80
2021/11/11 17:10:41;;;;;;;;;;;25.90;42.60;;;;;;5060482;28;19920;-79
2021/11/11 17:13:07;;;;;;;;;;;25.90;42.50;;;;;;5043887;28;19946;-80
2021/11/11 17:15:35;;;;;;;;;;;25.90;42.50;;;;;;5060664;28;19983;-81
2021/11/11 17:18:02;;;;;;;;;;;25.90;42.50;;;;;;5077896;28;20007;-79
2021/11/11 17:20:29;;;;;;;;;;;25.90;42.50;;;;;;5077844;28;20337;-79
2021/11/11 17:22:56;;;;;;;;;;;25.90;42.50;;;;;;5044061;28;19976;-80
2021/11/11 17:30:48;;;;;;;;;;;25.90;42.50;;;;;;5077174;28;20042;-80
2021/11/11 17:33:19;;;;;;;;;;;25.90;42.60;;;;;;5044629;28;20015;-78
2021/11/11 17:35:45;;;;;;;;;;;25.80;42.50;;;;;;5060001;28;19919;-79
2021/11/11 17:38:10;;;;;;;;;;;25.90;42.50;;;;;;5056280;28;19917;-81
2021/11/11 17:40:36;;;;;;;;;;;25.90;42.50;;;;;;5040150;28;20246;-81
2021/11/11 17:43:02;;;;;;;;;;;25.90;42.50;;;;;;5039843;28;19915;-79
2021/11/11 17:48:20;;;;;;;;;;;25.80;42.50;;;;;;5047042;28;19919;-79
2021/11/11 17:50:55;;;;;;;;;;;25.80;42.50;;;;;;5056553;28;20388;-77
2021/11/11 17:53:22;;;;;;;;;;;25.80;43.10;;;;;;5056238;28;19913;-79
2021/11/11 17:55:50;;;;;;;;;;;25.80;42.50;;;;;;5056510;28;20253;-81
2021/11/11 17:58:17;;;;;;;;;;;25.80;42.50;;;;;;5040056;28;19920;-79
2021/11/11 18:00:46;;;;;;;;;;;25.80;42.50;;;;;;5055683;28;19916;-79
2021/11/11 18:03:17;;;;;;;;;;;25.80;42.50;;;;;;5056179;28;20000;-79
2021/11/11 18:05:47;;;;;;;;;;;25.80;42.50;;;;;;5056608;28;19908;-81
2021/11/11 18:08:32;;;;;;;;;;;25.80;42.50;;;;;;5039616;28;19909;-78
2021/11/11 18:10:58;;;;;;;;;;;25.80;42.50;;;;;;5042013;28;19912;-79
2021/11/11 18:13:29;;;;;;;;;;;25.80;42.60;;;;;;5039323;28;19927;-80
2021/11/11 18:15:58;;;;;;;;;;;25.80;42.60;;;;;;5040248;28;19966;-81
2021/11/11 18:18:24;;;;;;;;;;;25.80;42.60;;;;;;5056104;28;20012;-80
2021/11/11 18:20:49;;;;;;;;;;;25.80;42.50;;;;;;5056227;28;19963;-80
2021/11/11 18:23:17;;;;;;;;;;;25.80;42.50;;;;;;5056886;28;19908;-82
2021/11/11 18:25:43;;;;;;;;;;;25.80;42.50;;;;;;5039723;28;19931;-82
2021/11/11 18:28:11;;;;;;;;;;;25.80;42.50;;;;;;5039052;28;20447;-79